Time;durP1;ratioP1;P1;durP2;ratioP2;P2;SDS_P1;SDS_P2;PMS_P1;PMS_P2;Temp;Humidity;BMP_temperature;BMP_pressure;BME280_temperature;BME280_humidity;BME280_pressure;Samples;Min_cycle;Max_cycle;Signal;HPM_P1;HPM_P2
2021/10/20 00:01:51;;;;;;;110.97;51.10;;;1.90;97.10;;;;;;5036782;28;20029;-94
2021/10/20 00:04:17;;;;;;;99.18;46.72;;;1.90;97.00;;;;;;5036803;28;20087;-95
2021/10/20 00:06:43;;;;;;;102.50;48.70;;;1.90;97.00;;;;;;5036648;28;20025;-96
2021/10/20 00:09:09;;;;;;;107.63;50.65;;;1.90;96.90;;;;;;5036963;28;20542;-96
2021/10/20 00:11:35;;;;;;;104.03;49.45;;;1.80;97.10;;;;;;5036633;28;20021;-94
2021/10/20 00:14:01;;;;;;;106.20;50.50;;;1.80;97.20;;;;;;5036797;28;20055;-95
2021/10/20 00:16:28;;;;;;;103.70;49.70;;;1.70;97.20;;;;;;5036664;28;20029;-96
2021/10/20 00:18:55;;;;;;;104.95;50.92;;;1.70;97.30;;;;;;5037661;28;20048;-94
2021/10/20 00:21:27;;;;;;;112.05;50.45;;;1.70;97.30;;;;;;5036462;28;20060;-94
2021/10/20 00:23:54;;;;;;;92.78;47.13;;;1.70;97.30;;;;;;5041032;28;20052;-95
2021/10/20 00:26:20;;;;;;;100.05;47.20;;;1.70;97.20;;;;;;5053141;28;20017;-94
2021/10/20 00:28:46;;;;;;;91.32;45.10;;;1.70;97.20;;;;;;5053298;28;20035;-95
2021/10/20 00:31:12;;;;;;;89.57;44.42;;;1.70;97.30;;;;;;5053279;28;20018;-94
2021/10/20 00:33:38;;;;;;;90.25;43.90;;;1.60;97.20;;;;;;5053307;28;20124;-94
2021/10/20 00:36:04;;;;;;;89.53;43.65;;;1.70;97.20;;;;;;5053024;28;20144;-95
2021/10/20 00:38:29;;;;;;;88.63;41.85;;;1.70;97.20;;;;;;5053084;28;20029;-95
2021/10/20 00:40:56;;;;;;;92.07;43.15;;;1.70;97.20;;;;;;5053018;28;20035;-96
2021/10/20 00:43:24;;;;;;;95.63;44.42;;;1.70;97.20;;;;;;5052996;28;20025;-94
2021/10/20 00:45:50;;;;;;;96.32;45.75;;;1.70;97.10;;;;;;5054722;28;20049;-95
2021/10/20 00:48:16;;;;;;;96.68;44.22;;;1.70;97.10;;;;;;5057065;28;20056;-95
2021/10/20 00:50:42;;;;;;;107.53;48.00;;;1.70;97.00;;;;;;5056976;28;20021;-94
2021/10/20 00:53:09;;;;;;;102.20;47.20;;;1.70;97.00;;;;;;5057255;28;20029;-95
2021/10/20 00:55:36;;;;;;;103.47;48.53;;;1.60;97.00;;;;;;5057334;28;20513;-95
2021/10/20 00:58:02;;;;;;;103.05;52.08;;;1.70;97.10;;;;;;5056873;28;20082;-94
2021/10/20 01:00:28;;;;;;;101.53;48.20;;;1.50;97.20;;;;;;5056692;28;20028;-96
2021/10/20 01:02:54;;;;;;;116.28;51.95;;;1.50;97.50;;;;;;5057707;28;20033;-95
2021/10/20 01:05:20;;;;;;;105.78;48.15;;;1.30;97.90;;;;;;5056574;28;20072;-95
2021/10/20 01:07:46;;;;;;;110.20;50.33;;;1.30;97.90;;;;;;5056742;28;20060;-95
2021/10/20 01:10:12;;;;;;;105.05;47.00;;;1.30;98.10;;;;;;5056620;28;20384;-95
2021/10/20 01:12:39;;;;;;;105.63;48.15;;;1.20;98.00;;;;;;5056684;28;20028;-94
2021/10/20 01:15:18;;;;;;;104.03;48.17;;;1.30;98.00;;;;;;5056914;28;20028;-96
2021/10/20 01:17:45;;;;;;;125.38;53.58;;;1.40;98.00;;;;;;5056685;28;20063;-93
2021/10/20 01:20:11;;;;;;;130.02;54.42;;;1.40;97.90;;;;;;5056157;28;20086;-95
2021/10/20 01:22:37;;;;;;;104.95;46.72;;;1.40;97.80;;;;;;5056376;28;20115;-94
2021/10/20 01:25:04;;;;;;;102.22;43.53;;;1.50;97.80;;;;;;5056043;28;20044;-94
2021/10/20 01:27:31;;;;;;;82.88;38.17;;;1.50;97.60;;;;;;5056068;28;20032;-94
2021/10/20 01:29:58;;;;;;;87.57;38.80;;;1.50;97.50;;;;;;5056317;28;20411;-95
2021/10/20 01:32:26;;;;;;;88.45;36.03;;;1.60;97.40;;;;;;5056290;28;20025;-95
2021/10/20 01:34:53;;;;;;;79.72;36.17;;;1.60;97.30;;;;;;5056341;28;20025;-95
2021/10/20 01:37:20;;;;;;;67.72;32.47;;;1.60;97.20;;;;;;5056336;28;20051;-96
2021/10/20 01:39:46;;;;;;;64.35;30.52;;;1.60;97.10;;;;;;5056109;28;20030;-95
2021/10/20 01:42:11;;;;;;;70.25;33.10;;;1.60;97.10;;;;;;5055960;28;20029;-95
2021/10/20 01:44:37;;;;;;;66.97;31.17;;;1.40;97.30;;;;;;5055840;28;20025;-96
2021/10/20 01:47:04;;;;;;;71.75;31.77;;;1.30;97.50;;;;;;5055870;28;20017;-95
2021/10/20 01:49:30;;;;;;;70.93;30.52;;;1.30;97.60;;;;;;5055998;28;20021;-96
2021/10/20 01:51:55;;;;;;;62.80;30.30;;;1.30;97.70;;;;;;5055781;28;20513;-95
2021/10/20 01:54:21;;;;;;;61.67;28.13;;;1.30;97.60;;;;;;5055751;28;20021;-95
2021/10/20 01:56:47;;;;;;;62.55;28.55;;;1.30;97.50;;;;;;5055371;28;20036;-95
2021/10/20 01:59:14;;;;;;;60.22;27.05;;;1.30;97.50;;;;;;5055883;28;20029;-96
2021/10/20 02:01:39;;;;;;;62.33;26.63;;;1.10;97.90;;;;;;5055641;28;20052;-95
2021/10/20 02:04:13;;;;;;;66.38;30.25;;;1.10;97.90;;;;;;5055503;28;20103;-95
2021/10/20 02:06:43;;;;;;;72.47;33.47;;;1.10;97.80;;;;;;5055565;28;20035;-95
2021/10/20 02:09:10;;;;;;;75.05;34.10;;;1.10;98.10;;;;;;5055518;28;20103;-95
2021/10/20 02:11:37;;;;;;;68.95;29.98;;;1.20;97.80;;;;;;5055440;28;20032;-95
2021/10/20 02:14:04;;;;;;;71.38;31.17;;;1.20;97.70;;;;;;5055439;28;20020;-95
2021/10/20 02:16:30;;;;;;;68.50;29.77;;;1.20;97.70;;;;;;5055303;28;20025;-95
2021/10/20 02:18:56;;;;;;;73.78;31.05;;;1.20;97.70;;;;;;5055481;28;20525;-95
2021/10/20 02:21:22;;;;;;;69.15;28.80;;;1.30;97.70;;;;;;5055591;28;20024;-94
2021/10/20 02:23:48;;;;;;;71.72;29.83;;;1.30;97.50;;;;;;5055065;28;20045;-95
2021/10/20 02:26:14;;;;;;;66.50;29.33;;;1.30;97.50;;;;;;5055312;28;20076;-95
2021/10/20 02:28:40;;;;;;;76.22;32.42;;;1.20;97.50;;;;;;5055258;28;20379;-94
2021/10/20 02:31:06;;;;;;;67.00;29.08;;;1.20;97.50;;;;;;5054909;28;20079;-94
2021/10/20 02:33:31;;;;;;;82.30;34.15;;;1.20;97.50;;;;;;5055128;28;20028;-95
2021/10/20 02:35:57;;;;;;;78.95;32.13;;;1.20;97.30;;;;;;5054995;28;20380;-96
2021/10/20 02:38:24;;;;;;;82.70;31.10;;;1.20;97.10;;;;;;5055035;28;20025;-95
2021/10/20 02:40:50;;;;;;;78.60;33.28;;;1.10;97.30;;;;;;5055206;28;20032;-90
2021/10/20 02:43:16;;;;;;;83.95;33.60;;;1.10;97.40;;;;;;5054585;28;20021;-91
2021/10/20 02:45:43;;;;;;;74.85;32.95;;;1.10;97.50;;;;;;5054945;28;20021;-91
2021/10/20 02:48:08;;;;;;;79.13;33.25;;;1.10;97.60;;;;;;5054902;28;20360;-91
2021/10/20 02:50:34;;;;;;;80.45;34.08;;;1.20;97.60;;;;;;5054552;28;20055;-92
2021/10/20 02:53:00;;;;;;;83.05;34.03;;;1.20;97.40;;;;;;5054835;28;20021;-91
2021/10/20 02:55:26;;;;;;;84.07;34.05;;;1.20;97.40;;;;;;5054601;28;20083;-91
2021/10/20 02:57:52;;;;;;;79.50;33.40;;;1.20;97.40;;;;;;5054549;28;20025;-90
2021/10/20 03:00:18;;;;;;;74.78;31.30;;;1.10;97.30;;;;;;5054619;28;20044;-91
2021/10/20 03:02:44;;;;;;;73.78;31.40;;;1.10;97.40;;;;;;5054303;28;20471;-90
2021/10/20 03:05:10;;;;;;;74.20;32.13;;;1.10;97.20;;;;;;5054196;28;20036;-91
2021/10/20 03:07:36;;;;;;;73.85;30.27;;;1.10;97.20;;;;;;5054007;28;20025;-90
2021/10/20 03:10:03;;;;;;;72.13;30.88;;;1.10;97.30;;;;;;5054185;28;20027;-90
2021/10/20 14:44:50;;;;;;;36.40;19.77;;;11.00;95.30;;;;;;5112725;27;20542;-89
2021/10/20 14:47:16;;;;;;;29.85;18.30;;;10.90;95.80;;;;;;5111408;28;20543;-91
2021/10/20 14:49:42;;;;;;;27.60;17.08;;;10.90;96.10;;;;;;5111448;28;20016;-90
2021/10/20 14:52:07;;;;;;;26.92;17.08;;;10.90;96.30;;;;;;5111239;28;20020;-90
2021/10/20 14:54:33;;;;;;;29.48;16.85;;;10.90;96.30;;;;;;5111069;28;20050;-90
2021/10/20 15:00:21;;;;;;;31.25;19.33;;;10.90;96.30;;;;;;5091918;28;20026;-93
2021/10/20 15:02:51;;;;;;;39.55;19.92;;;10.90;96.50;;;;;;5090274;28;20119;-94
2021/10/20 15:05:18;;;;;;;35.58;19.75;;;11.00;96.50;;;;;;5090592;28;20036;-94
2021/10/20 15:07:45;;;;;;;26.70;17.52;;;11.00;96.50;;;;;;5090522;28;20128;-94
2021/10/20 15:10:12;;;;;;;32.10;18.42;;;11.00;96.50;;;;;;5090372;28;20029;-95
2021/10/20 15:12:38;;;;;;;31.23;18.77;;;11.00;96.20;;;;;;5090366;28;20131;-95
2021/10/20 15:15:04;;;;;;;31.00;19.05;;;11.10;96.30;;;;;;5090515;28;20059;-94
2021/10/20 15:17:30;;;;;;;28.00;15.80;;;11.10;96.20;;;;;;5090278;28;20028;-94
2021/10/20 15:19:59;;;;;;;25.27;16.27;;;11.10;96.10;;;;;;5107418;28;20084;-94
2021/10/20 15:22:26;;;;;;;27.77;15.15;;;11.20;96.10;;;;;;5110554;28;20500;-93
2021/10/20 15:24:52;;;;;;;25.95;15.27;;;11.20;95.90;;;;;;5110289;28;20024;-93
2021/10/20 15:27:18;;;;;;;25.90;14.30;;;11.20;95.90;;;;;;5110510;28;20027;-93
2021/10/20 15:29:45;;;;;;;25.67;14.85;;;11.20;95.70;;;;;;5110483;28;20043;-94
2021/10/20 15:32:11;;;;;;;26.67;14.57;;;11.20;95.70;;;;;;5110203;28;20028;-95
2021/10/20 15:34:38;;;;;;;26.85;13.85;;;11.20;95.80;;;;;;5111140;28;20031;-94
2021/10/20 15:40:26;;;;;;;26.02;15.82;;;11.20;95.60;;;;;;5111742;28;20547;-95
2021/10/20 15:42:52;;;;;;;29.42;16.02;;;11.20;95.60;;;;;;5110577;28;20056;-94
2021/10/20 15:45:18;;;;;;;29.60;15.75;;;11.20;95.50;;;;;;5110182;28;20032;-94
2021/10/20 15:47:44;;;;;;;27.45;16.40;;;11.20;95.60;;;;;;5110259;28;20148;-95
2021/10/20 15:50:10;;;;;;;26.85;15.80;;;11.20;95.70;;;;;;5110467;28;20431;-94
2021/10/20 15:52:38;;;;;;;29.40;16.30;;;11.20;95.60;;;;;;5110010;28;20019;-94
2021/10/20 15:55:05;;;;;;;29.58;17.27;;;11.20;95.60;;;;;;5102466;28;20088;-94
2021/10/20 15:57:31;;;;;;;32.72;18.23;;;11.20;95.60;;;;;;5096799;28;20378;-94
2021/10/20 15:59:57;;;;;;;26.20;15.88;;;11.20;95.60;;;;;;5096103;28;20024;-94
2021/10/20 16:02:22;;;;;;;26.70;15.40;;;11.30;95.60;;;;;;5095937;28;20019;-94
2021/10/20 16:04:48;;;;;;;24.98;15.50;;;11.20;95.50;;;;;;5096337;28;20028;-96
